Time;durP1;ratioP1;P1;durP2;ratioP2;P2;SDS_P1;SDS_P2;PMS_P1;PMS_P2;Temp;Humidity;BMP_temperature;BMP_pressure;BME280_temperature;BME280_humidity;BME280_pressure;Samples;Min_cycle;Max_cycle;Signal;HPM_P1;HPM_P2
2023/12/19 00:01:09;;;;;;;32.60;20.23;;;;;;;-0.70;80.98;95990.59;5112026;28;20485;-74
2023/12/19 00:03:34;;;;;;;20.45;13.25;;;;;;;-0.58;80.21;95986.97;5110576;28;20031;-74
2023/12/19 00:06:00;;;;;;;21.35;13.48;;;;;;;-0.69;80.29;95979.53;5110422;28;20454;-74
2023/12/19 00:08:25;;;;;;;31.00;18.70;;;;;;;-1.17;81.79;95983.00;5111886;28;20092;-74
2023/12/19 00:10:51;;;;;;;20.67;13.07;;;;;;;-0.96;80.12;95983.44;5110845;28;20039;-74
2023/12/19 00:13:16;;;;;;;21.77;13.38;;;;;;;-0.99;80.59;95978.41;5111403;28;20455;-74
2023/12/19 00:15:42;;;;;;;26.83;17.45;;;;;;;-1.29;81.63;95977.25;5092460;28;20039;-74
2023/12/19 00:18:07;;;;;;;15.57;9.68;;;;;;;-1.14;80.96;95982.94;5111701;28;20028;-74
2023/12/19 00:20:32;;;;;;;20.25;12.02;;;;;;;-1.05;80.89;95991.28;5110093;28;20027;-73
2023/12/19 00:22:58;;;;;;;14.13;9.25;;;;;;;-1.02;79.48;95989.50;5107995;28;20024;-74
2023/12/19 00:25:23;;;;;;;15.00;10.85;;;;;;;-1.29;80.57;95990.84;5112043;28;20080;-74
2023/12/19 00:27:49;;;;;;;11.50;7.93;;;;;;;-1.14;79.18;95970.19;5111565;28;20034;-74
2023/12/19 00:30:16;;;;;;;10.90;6.90;;;;;;;-0.99;79.01;95989.44;5110482;28;20417;-74
2023/12/19 00:32:41;;;;;;;10.70;6.38;;;;;;;-1.11;79.08;95999.91;5120751;27;20036;-74
2023/12/19 00:35:07;;;;;;;8.23;5.43;;;;;;;-1.18;79.64;95996.59;5144176;27;20417;-74
2023/12/19 00:37:32;;;;;;;8.35;5.53;;;;;;;-1.14;79.56;95995.69;5110909;28;20390;-74
2023/12/19 00:39:57;;;;;;;10.00;6.40;;;;;;;-1.24;79.33;95983.97;5093131;28;20046;-74
2023/12/19 00:42:23;;;;;;;7.40;5.43;;;;;;;-1.12;79.36;95990.53;5109279;28;20043;-74
2023/12/19 00:44:48;;;;;;;10.35;6.95;;;;;;;-1.07;77.91;95985.38;5127281;27;20032;-74
2023/12/19 00:47:13;;;;;;;10.07;6.68;;;;;;;-1.00;78.25;95992.88;5144100;27;20503;-74
2023/12/19 00:49:39;;;;;;;9.18;6.18;;;;;;;-1.04;78.28;95992.97;5109770;28;20042;-74
2023/12/19 00:52:04;;;;;;;9.93;6.10;;;;;;;-1.13;78.93;95991.41;5108866;28;20080;-74
2023/12/19 00:54:30;;;;;;;9.93;6.75;;;;;;;-1.20;78.82;95974.53;5110195;28;20422;-74
2023/12/19 00:56:55;;;;;;;5.90;4.38;;;;;;;-1.00;78.56;95990.34;5093085;28;20032;-74
2023/12/19 00:59:21;;;;;;;7.32;4.97;;;;;;;-1.09;77.97;95972.63;5109761;28;20397;-74
2023/12/19 01:01:47;;;;;;;8.10;5.18;;;;;;;-1.03;77.94;95977.63;5091948;28;20036;-74
2023/12/19 01:04:12;;;;;;;7.75;4.65;;;;;;;-1.26;77.25;95952.53;5092809;28;20030;-74
2023/12/19 01:06:38;;;;;;;10.77;6.85;;;;;;;-1.12;77.68;95981.19;5109749;28;20028;-74
2023/12/19 01:09:05;;;;;;;9.75;6.30;;;;;;;-1.27;78.37;95972.97;5091924;28;20032;-74
2023/12/19 01:11:30;;;;;;;10.50;6.15;;;;;;;-1.20;78.99;95979.63;5093202;28;20024;-74
2023/12/19 01:13:55;;;;;;;9.77;6.13;;;;;;;-1.35;78.59;95955.28;5109783;28;20107;-74
2023/12/19 01:16:21;;;;;;;10.50;6.90;;;;;;;-1.26;78.32;95956.81;5110577;28;20040;-74
2023/12/19 01:18:46;;;;;;;11.00;6.63;;;;;;;-1.25;78.69;95966.16;5108814;28;20081;-74
2023/12/19 01:21:12;;;;;;;10.48;6.57;;;;;;;-1.35;78.87;95960.38;5111111;28;20023;-74
2023/12/19 01:23:37;;;;;;;10.50;6.50;;;;;;;-1.29;78.87;95955.16;5109459;28;20024;-74
2023/12/19 01:26:03;;;;;;;8.02;5.70;;;;;;;-1.28;77.67;95948.34;5127033;28;20074;-74
2023/12/19 01:28:28;;;;;;;8.60;5.57;;;;;;;-1.27;78.54;95961.06;5124983;28;20059;-74
2023/12/19 01:30:54;;;;;;;6.60;4.28;;;;;;;-1.45;78.36;95939.31;5126734;28;20416;-74
2023/12/19 01:33:19;;;;;;;10.93;7.28;;;;;;;-1.41;79.19;95957.94;5109471;28;20031;-74
2023/12/19 01:35:45;;;;;;;11.85;7.57;;;;;;;-1.41;80.36;95958.78;5125147;28;20047;-74
2023/12/19 01:38:10;;;;;;;11.77;7.45;;;;;;;-1.29;79.16;95954.31;5092723;28;20054;-74
2023/12/19 01:40:35;;;;;;;10.45;7.10;;;;;;;-1.32;79.12;95950.13;5092871;28;20478;-74
2023/12/19 01:43:01;;;;;;;8.13;5.70;;;;;;;-1.43;79.49;95950.31;5110315;28;20447;-74
2023/12/19 01:45:28;;;;;;;9.48;6.22;;;;;;;-1.35;78.97;95956.09;5125337;28;20481;-74
2023/12/19 01:47:53;;;;;;;7.93;5.50;;;;;;;-1.44;79.57;95960.53;5072114;28;20055;-75
2023/12/19 01:50:19;;;;;;;7.15;4.65;;;;;;;-1.50;78.63;95938.56;5075995;28;20437;-74
2023/12/19 01:52:56;;;;;;;6.60;5.15;;;;;;;-1.66;79.53;95953.25;5109910;28;20051;-74
2023/12/19 01:55:25;;;;;;;7.47;5.00;;;;;;;-1.49;79.87;95952.97;5094970;28;20036;-74
2023/12/19 01:57:50;;;;;;;5.90;4.15;;;;;;;-1.36;78.81;95948.50;5113213;28;20024;-74
2023/12/19 02:00:16;;;;;;;5.50;3.67;;;;;;;-1.35;78.26;95950.16;5096258;28;20089;-74
2023/12/19 02:02:41;;;;;;;6.30;4.15;;;;;;;-1.67;78.87;95937.97;5111267;28;20020;-74
2023/12/19 02:05:10;;;;;;;8.18;4.32;;;;;;;-1.65;79.89;95949.84;5112513;28;20043;-74
2023/12/19 02:07:35;;;;;;;7.65;4.72;;;;;;;-1.68;80.14;95936.31;5113047;28;20031;-74
2023/12/19 02:10:00;;;;;;;6.28;4.70;;;;;;;-1.58;80.35;95936.13;5130301;27;20493;-74
2023/12/19 02:12:26;;;;;;;7.53;5.53;;;;;;;-1.51;78.91;95929.22;5128617;27;20409;-74
2023/12/19 02:14:52;;;;;;;7.00;5.15;;;;;;;-1.46;78.90;95931.69;5094960;27;20067;-74
2023/12/19 02:17:17;;;;;;;5.63;4.03;;;;;;;-1.46;78.77;95941.88;5114207;27;20501;-74
2023/12/19 02:19:43;;;;;;;5.82;3.60;;;;;;;-1.57;77.78;95927.59;5112904;28;20253;-74
2023/12/19 02:22:09;;;;;;;7.22;5.43;;;;;;;-1.64;79.01;95938.78;5100808;28;20032;-74
2023/12/19 02:24:34;;;;;;;11.35;9.05;;;;;;;-1.69;79.40;95935.47;5094746;28;20043;-74
2023/12/19 02:27:00;;;;;;;15.57;12.07;;;;;;;-2.02;79.66;95929.22;5129718;27;20504;-74
2023/12/19 02:29:25;;;;;;;15.18;11.32;;;;;;;-1.84;80.59;95934.03;5112606;28;20081;-74
2023/12/19 02:31:50;;;;;;;16.80;14.18;;;;;;;-1.75;80.04;95929.66;5112032;28;20043;-74
2023/12/19 02:34:16;;;;;;;20.48;16.50;;;;;;;-1.91;81.42;95937.53;5112223;28;20044;-74
2023/12/19 02:36:41;;;;;;;20.65;15.85;;;;;;;-1.70;79.70;95946.56;5129906;27;20028;-74
2023/12/19 02:39:07;;;;;;;17.45;14.32;;;;;;;-1.84;79.98;95935.72;5110748;28;20088;-74
2023/12/19 02:41:32;;;;;;;18.30;12.95;;;;;;;-1.79;80.17;95936.50;5112399;28;20481;-74
2023/12/19 02:43:58;;;;;;;17.02;14.00;;;;;;;-1.74;80.77;95918.59;5112019;28;20092;-74
2023/12/19 02:46:23;;;;;;;16.88;13.90;;;;;;;-1.62;80.92;95928.56;5111933;28;20471;-74
2023/12/19 02:48:48;;;;;;;13.40;10.48;;;;;;;-1.68;79.60;95923.56;5128202;27;20042;-74
2023/12/19 02:51:14;;;;;;;13.25;8.75;;;;;;;-1.72;79.14;95910.06;5095299;28;20028;-74
2023/12/19 02:53:39;;;;;;;15.13;8.80;;;;;;;-1.95;80.34;95920.66;5112125;28;20032;-74
2023/12/19 02:56:05;;;;;;;12.30;8.02;;;;;;;-1.92;80.01;95922.28;5094954;28;20043;-74
2023/12/19 02:58:30;;;;;;;9.23;6.82;;;;;;;-1.91;79.47;95918.88;5110756;28;20024;-74
2023/12/19 03:00:56;;;;;;;12.32;7.80;;;;;;;-1.93;79.45;95911.25;5111725;28;20040;-74
2023/12/19 03:03:21;;;;;;;10.50;6.93;;;;;;;-1.91;79.48;95914.63;5113142;28;20073;-74
2023/12/19 03:05:47;;;;;;;10.48;6.47;;;;;;;-2.01;80.05;95907.97;5111915;28;20036;-74
2023/12/19 03:08:12;;;;;;;10.63;6.35;;;;;;;-2.04;79.83;95913.97;5109588;28;20030;-74
2023/12/19 03:10:37;;;;;;;8.52;5.60;;;;;;;-2.06;79.50;95913.16;5112099;28;20401;-74
2023/12/19 03:13:03;;;;;;;9.60;6.00;;;;;;;-2.04;79.61;95925.88;5145896;27;20023;-74
2023/12/19 03:15:28;;;;;;;9.40;5.93;;;;;;;-2.20;79.95;95909.16;5110198;28;20032;-74
2023/12/19 03:17:54;;;;;;;11.68;6.38;;;;;;;-2.18;80.54;95913.34;5128670;27;20023;-74
2023/12/19 03:20:19;;;;;;;8.43;6.07;;;;;;;-2.05;80.61;95919.94;5094265;28;20040;-74
2023/12/19 03:22:44;;;;;;;11.60;7.53;;;;;;;-2.10;78.54;95923.41;5145770;27;20454;-74
2023/12/19 03:25:10;;;;;;;13.57;8.73;;;;;;;-2.46;80.14;95925.66;5093299;28;20405;-74
2023/12/19 03:27:35;;;;;;;12.70;8.38;;;;;;;-2.54;80.98;95933.38;5111170;28;20115;-74
2023/12/19 03:30:01;;;;;;;11.00;6.97;;;;;;;-2.40;80.24;95920.47;5112949;28;20089;-74
2023/12/19 03:32:26;;;;;;;13.68;7.82;;;;;;;-2.41;80.55;95923.88;5145772;27;20032;-74
2023/12/19 03:34:52;;;;;;;22.40;14.15;;;;;;;-2.31;79.78;95925.44;5110904;28;20040;-74
2023/12/19 03:37:17;;;;;;;35.67;22.60;;;;;;;-2.73;81.15;95925.19;5110582;28;20032;-74
2023/12/19 03:39:43;;;;;;;20.77;13.85;;;;;;;-2.68;81.35;95932.75;5112507;28;20500;-74
2023/12/19 03:42:08;;;;;;;24.42;15.15;;;;;;;-2.61;81.07;95911.44;5128250;27;20485;-74
2023/12/19 03:44:34;;;;;;;29.73;17.73;;;;;;;-2.50;79.26;95893.50;5143496;27;20044;-74
2023/12/19 03:46:59;;;;;;;19.45;14.45;;;;;;;-2.39;78.10;95918.78;5093770;28;20053;-74
2023/12/19 03:49:26;;;;;;;12.52;7.90;;;;;;;-2.44;77.11;95912.91;5128166;27;20035;-75
2023/12/19 03:51:51;;;;;;;21.38;13.25;;;;;;;-2.68;77.98;95902.22;5126891;27;20038;-74
2023/12/19 03:54:17;;;;;;;19.27;12.27;;;;;;;-2.85;79.28;95920.25;5093915;28;20036;-74
2023/12/19 03:56:42;;;;;;;12.80;8.52;;;;;;;-2.54;78.46;95907.94;5109460;28;20029;-74
2023/12/19 03:59:11;;;;;;;13.07;8.07;;;;;;;-2.81;79.28;95903.25;5108802;28;20507;-74
2023/12/19 04:01:44;;;;;;;10.00;6.68;;;;;;;-2.76;79.44;95887.06;5087542;28;20077;-74
2023/12/19 04:04:09;;;;;;;12.32;7.75;;;;;;;-2.75;80.39;95893.84;5089761;28;20043;-74
2023/12/19 04:06:35;;;;;;;10.07;6.50;;;;;;;-2.85;80.45;95896.53;5090428;28;20024;-74
2023/12/19 04:09:00;;;;;;;11.38;7.57;;;;;;;-2.67;79.58;95896.28;5097742;28;20108;-74
2023/12/19 04:11:26;;;;;;;13.15;7.75;;;;;;;-2.68;79.59;95886.13;5144092;27;20031;-74
2023/12/19 04:13:51;;;;;;;8.65;5.70;;;;;;;-2.60;79.14;95885.13;5110366;28;20028;-74
2023/12/19 04:16:17;;;;;;;9.15;6.00;;;;;;;-2.47;78.12;95894.28;5110477;28;20042;-74
2023/12/19 04:18:42;;;;;;;10.55;6.63;;;;;;;-2.63;78.30;95884.34;5111636;28;20028;-74
2023/12/19 04:21:08;;;;;;;11.23;7.28;;;;;;;-2.65;78.62;95898.78;5109570;28;20042;-74
2023/12/19 04:23:34;;;;;;;18.02;13.02;;;;;;;-2.59;78.99;95901.25;5110531;28;20034;-74
2023/12/19 04:25:59;;;;;;;19.38;12.77;;;;;;;-2.57;79.54;95900.34;5112270;28;20092;-74
2023/12/19 04:28:25;;;;;;;21.35;13.10;;;;;;;-2.62;79.50;95889.44;5111582;28;20023;-74
2023/12/19 04:30:50;;;;;;;26.15;18.98;;;;;;;-2.55;79.51;95906.28;5144040;27;20093;-75
2023/12/19 04:33:16;;;;;;;17.50;9.88;;;;;;;-2.51;78.93;95896.88;5106192;28;20448;-74
2023/12/19 04:35:41;;;;;;;13.57;8.95;;;;;;;-2.54;79.64;95917.28;5102083;28;20420;-75
2023/12/19 04:38:07;;;;;;;22.85;13.50;;;;;;;-2.42;80.10;95922.22;5104123;27;20035;-75
2023/12/19 04:40:32;;;;;;;17.08;10.52;;;;;;;-2.36;79.82;95917.03;5070932;28;20092;-75
2023/12/19 04:42:58;;;;;;;18.40;11.27;;;;;;;-2.56;79.78;95902.06;5084218;28;20475;-74
2023/12/19 04:45:23;;;;;;;16.55;9.70;;;;;;;-2.30;79.51;95911.00;5068309;28;20085;-74
2023/12/19 04:47:48;;;;;;;16.83;9.38;;;;;;;-2.28;78.67;95915.22;5085904;28;20085;-74
2023/12/19 04:50:14;;;;;;;16.40;8.20;;;;;;;-2.44;78.74;95913.75;5067145;28;20089;-75
2023/12/19 04:52:39;;;;;;;11.05;7.43;;;;;;;-2.66;78.60;95881.84;5084978;28;20032;-74
2023/12/19 04:55:05;;;;;;;11.00;6.57;;;;;;;-2.40;78.12;95925.56;5073208;28;20588;-74
2023/12/19 04:57:30;;;;;;;9.85;6.15;;;;;;;-2.42;78.02;95912.03;5087622;28;20051;-74
2023/12/19 04:59:56;;;;;;;11.70;6.63;;;;;;;-2.48;77.70;95922.28;5050648;28;20040;-74
2023/12/19 05:02:21;;;;;;;12.50;7.15;;;;;;;-2.32;77.33;95933.91;5068429;28;20081;-73
2023/12/19 05:04:47;;;;;;;13.75;8.80;;;;;;;-2.63;78.01;95923.34;5084665;28;20044;-73
2023/12/19 05:07:12;;;;;;;12.82;8.82;;;;;;;-2.36;77.51;95932.31;5085502;28;20028;-73
2023/12/19 05:09:38;;;;;;;13.50;7.65;;;;;;;-2.49;78.29;95931.63;5100809;28;20463;-73
2023/12/19 05:12:03;;;;;;;11.75;7.80;;;;;;;-2.59;78.59;95939.41;5088051;28;20077;-73
2023/12/19 05:14:29;;;;;;;11.30;8.15;;;;;;;-2.59;79.13;95921.59;5086263;28;20051;-73
2023/12/19 05:16:54;;;;;;;13.07;7.93;;;;;;;-2.48;79.44;95938.41;5085354;28;20073;-73
2023/12/19 05:19:20;;;;;;;14.25;9.77;;;;;;;-2.39;77.88;95932.34;5083302;28;20035;-75
2023/12/19 05:21:45;;;;;;;15.90;10.52;;;;;;;-2.46;77.06;95928.19;5086032;28;20426;-72
2023/12/19 05:24:11;;;;;;;15.55;9.68;;;;;;;-2.55;76.92;95926.63;5070527;28;20052;-73
2023/12/19 05:26:36;;;;;;;14.65;9.55;;;;;;;-2.44;76.92;95939.19;5089883;28;20039;-73
2023/12/19 05:29:01;;;;;;;13.73;9.15;;;;;;;-2.57;77.22;95932.59;5070846;28;20410;-73
2023/12/19 05:31:27;;;;;;;17.08;10.00;;;;;;;-2.56;77.29;95919.88;5073200;28;20500;-73
2023/12/19 05:33:52;;;;;;;18.92;10.73;;;;;;;-2.54;77.31;95914.75;5089447;28;20028;-73
2023/12/19 05:36:18;;;;;;;16.38;10.65;;;;;;;-2.44;77.13;95926.47;5089095;28;20024;-73
2023/12/19 05:38:43;;;;;;;15.07;9.38;;;;;;;-2.57;77.21;95927.50;5076307;28;20028;-73
2023/12/19 05:41:14;;;;;;;12.80;8.68;;;;;;;-2.85;77.45;95915.16;5055212;28;20110;-72
2023/12/19 05:43:40;;;;;;;11.65;7.78;;;;;;;-2.62;77.98;95931.81;5099941;28;20528;-73
2023/12/19 05:46:05;;;;;;;13.00;7.35;;;;;;;-2.66;77.34;95930.19;5092892;28;20047;-73
2023/12/19 05:48:31;;;;;;;10.45;6.25;;;;;;;-2.80;78.22;95926.13;5074561;28;20032;-73
2023/12/19 05:50:56;;;;;;;8.75;5.07;;;;;;;-2.71;78.60;95928.53;5107785;28;20066;-73
2023/12/19 05:53:21;;;;;;;5.95;3.95;;;;;;;-2.58;78.95;95920.75;5109223;28;20038;-72
2023/12/19 05:55:47;;;;;;;5.97;3.40;;;;;;;-2.53;78.04;95941.88;5109321;28;20090;-73
2023/12/19 05:58:13;;;;;;;8.55;5.40;;;;;;;-2.73;78.03;95945.53;5092601;28;20028;-73
2023/12/19 06:00:38;;;;;;;10.90;4.85;;;;;;;-2.81;78.35;95924.44;5140794;27;20083;-73
2023/12/19 06:03:04;;;;;;;6.80;4.55;;;;;;;-2.78;78.63;95919.31;5107257;28;20032;-73
2023/12/19 06:05:29;;;;;;;9.10;6.18;;;;;;;-2.78;78.99;95942.22;5106882;28;20036;-73
2023/12/19 06:07:55;;;;;;;13.15;7.57;;;;;;;-2.72;78.15;95929.41;5090534;28;20023;-72
2023/12/19 06:10:20;;;;;;;14.02;8.15;;;;;;;-2.86;78.65;95916.03;5089519;28;20504;-73
2023/12/19 06:12:46;;;;;;;13.15;7.80;;;;;;;-2.67;78.68;95923.41;5090378;28;20111;-73
2023/12/19 06:15:13;;;;;;;13.25;8.32;;;;;;;-2.64;78.89;95936.09;5087751;28;20501;-73
2023/12/19 06:17:46;;;;;;;19.40;10.27;;;;;;;-2.75;78.84;95909.09;5097905;27;20031;-73
2023/12/19 06:20:11;;;;;;;14.50;9.65;;;;;;;-2.63;79.18;95930.97;5093369;28;20043;-73
2023/12/19 06:22:38;;;;;;;14.05;9.77;;;;;;;-2.53;78.81;95926.63;5092028;28;20551;-73
2023/12/19 06:25:04;;;;;;;12.65;8.90;;;;;;;-2.46;78.26;95915.47;5101824;27;20023;-73
2023/12/19 06:27:29;;;;;;;12.23;8.18;;;;;;;-2.48;78.28;95912.09;5092102;28;20507;-73
2023/12/19 06:29:55;;;;;;;14.25;8.35;;;;;;;-2.58;78.42;95921.59;5109617;27;20399;-73
2023/12/19 06:32:20;;;;;;;15.23;8.85;;;;;;;-2.52;78.56;95913.84;5110078;27;20058;-74
2023/12/19 06:34:46;;;;;;;14.32;8.60;;;;;;;-2.52;78.55;95905.38;5104749;28;20471;-73
2023/12/19 06:37:11;;;;;;;13.95;8.35;;;;;;;-2.51;78.49;95901.97;5107973;28;20044;-73
2023/12/19 06:39:37;;;;;;;13.93;8.98;;;;;;;-2.39;77.92;95913.69;5122329;27;20057;-73
2023/12/19 06:42:02;;;;;;;14.88;9.63;;;;;;;-2.61;78.39;95920.78;5108507;28;20572;-73
2023/12/19 06:44:28;;;;;;;16.10;9.85;;;;;;;-2.39;78.13;95922.16;5108382;28;20055;-73
2023/12/19 06:46:53;;;;;;;15.95;9.52;;;;;;;-2.29;77.57;95922.84;5091180;28;20500;-74
2023/12/19 06:49:19;;;;;;;18.90;11.60;;;;;;;-2.66;78.88;95922.56;5107416;28;20493;-74
2023/12/19 06:51:47;;;;;;;18.90;12.02;;;;;;;-2.48;78.47;95920.59;5089246;28;20118;-74
2023/12/19 06:54:13;;;;;;;19.90;12.02;;;;;;;-2.61;79.02;95925.88;5107359;28;20032;-74
2023/12/19 06:56:39;;;;;;;21.92;13.35;;;;;;;-2.42;78.87;95927.31;5076991;28;20096;-74
2023/12/19 06:59:06;;;;;;;21.45;13.15;;;;;;;-2.34;78.88;95938.22;5094737;28;20043;-74
2023/12/19 07:01:31;;;;;;;20.40;13.07;;;;;;;-2.47;78.52;95911.25;5094932;28;20106;-74
2023/12/19 07:03:56;;;;;;;18.48;12.02;;;;;;;-2.35;78.85;95933.13;5112960;27;20024;-72
2023/12/19 07:06:22;;;;;;;20.55;12.88;;;;;;;-2.25;78.36;95938.06;5109615;28;20023;-72
2023/12/19 07:08:47;;;;;;;29.83;16.83;;;;;;;-2.26;78.64;95933.00;5111404;28;20085;-72
2023/12/19 07:11:14;;;;;;;23.90;14.90;;;;;;;-2.55;78.74;95925.78;5093834;28;20073;-75
2023/12/19 07:13:39;;;;;;;24.77;13.90;;;;;;;-2.32;78.59;95939.00;5127100;27;20027;-75
2023/12/19 07:16:06;;;;;;;23.52;14.82;;;;;;;-2.27;78.55;95932.16;5094276;28;20042;-75
2023/12/19 07:18:31;;;;;;;23.67;15.00;;;;;;;-2.16;77.62;95943.91;5076092;28;20032;-75
2023/12/19 07:20:57;;;;;;;23.10;14.48;;;;;;;-2.15;77.70;95951.50;5093554;28;20034;-75
2023/12/19 07:23:22;;;;;;;20.98;14.50;;;;;;;-2.22;78.02;95952.47;5107507;28;20068;-74
2023/12/19 07:25:47;;;;;;;23.08;14.40;;;;;;;-2.24;78.41;95938.91;5103460;28;20041;-75
2023/12/19 07:28:15;;;;;;;31.92;19.08;;;;;;;-2.13;78.94;95951.47;5128183;27;20477;-75
2023/12/19 07:30:40;;;;;;;31.55;19.00;;;;;;;-2.16;79.08;95948.97;5126361;27;20035;-75
2023/12/19 07:33:06;;;;;;;31.58;21.15;;;;;;;-2.12;79.08;95942.97;5111391;28;20019;-75
2023/12/19 07:35:31;;;;;;;29.25;18.70;;;;;;;-1.98;78.76;95933.41;5112869;28;20077;-75
2023/12/19 07:37:56;;;;;;;32.97;20.67;;;;;;;-1.89;78.50;95923.09;5110135;28;20481;-75
2023/12/19 07:40:22;;;;;;;26.55;16.80;;;;;;;-1.89;77.51;95912.06;5126405;27;20031;-75
2023/12/19 07:42:47;;;;;;;30.60;18.60;;;;;;;-2.05;77.34;95903.81;5144579;27;20100;-74
2023/12/19 07:45:13;;;;;;;35.58;21.80;;;;;;;-2.17;77.77;95904.88;5127843;27;20035;-75
2023/12/19 07:47:38;;;;;;;40.75;23.92;;;;;;;-2.18;78.49;95913.34;5093751;28;20020;-75
2023/12/19 07:50:05;;;;;;;51.17;32.35;;;;;;;-2.18;79.54;95889.59;5128130;27;20039;-75
2023/12/19 07:52:30;;;;;;;38.92;23.90;;;;;;;-2.51;80.17;95890.13;5093937;28;20390;-75
2023/12/19 07:54:56;;;;;;;40.97;25.92;;;;;;;-2.47;80.59;95904.47;5145494;27;20040;-75
2023/12/19 07:57:21;;;;;;;52.30;32.20;;;;;;;-2.56;80.61;95888.50;5109496;28;20032;-75
2023/12/19 07:59:48;;;;;;;49.78;30.40;;;;;;;-2.21;81.53;95894.75;5091919;28;20035;-75
2023/12/19 08:02:13;;;;;;;44.97;27.90;;;;;;;-2.13;80.26;95882.72;5109892;28;20027;-75
2023/12/19 08:04:39;;;;;;;42.92;26.30;;;;;;;-2.00;80.59;95894.41;5093861;28;20031;-75
2023/12/19 08:07:04;;;;;;;43.00;25.63;;;;;;;-1.91;81.63;95899.34;5092319;28;20020;-75
2023/12/19 08:09:30;;;;;;;47.05;28.55;;;;;;;-1.80;81.88;95894.91;5110833;28;20031;-75
2023/12/19 08:11:58;;;;;;;50.70;28.85;;;;;;;-1.75;82.08;95879.53;5110781;28;20099;-75
2023/12/19 08:14:24;;;;;;;49.85;30.42;;;;;;;-1.44;81.63;95895.09;5110617;28;20031;-75
2023/12/19 08:16:49;;;;;;;45.22;28.80;;;;;;;-1.15;80.40;95901.34;5110619;28;20492;-75
2023/12/19 08:19:16;;;;;;;46.05;28.92;;;;;;;-1.14;80.41;95893.69;5110495;28;20394;-75
2023/12/19 08:21:51;;;;;;;48.28;30.77;;;;;;;-1.01;81.05;95893.41;5110576;28;20023;-75
2023/12/19 08:24:17;;;;;;;47.90;30.02;;;;;;;-0.90;80.97;95882.09;5110478;28;20503;-75
2023/12/19 08:26:49;;;;;;;48.00;30.52;;;;;;;-0.77;80.78;95886.97;5110509;28;20028;-75
2023/12/19 08:29:15;;;;;;;53.67;32.15;;;;;;;-0.70;80.71;95898.72;5093509;28;20031;-75
2023/12/19 08:31:40;;;;;;;51.28;32.78;;;;;;;-0.84;80.04;95898.16;5110358;28;20511;-75
2023/12/19 08:34:06;;;;;;;56.90;35.20;;;;;;;-0.75;81.31;95886.06;5093293;28;20540;-75
2023/12/19 08:36:32;;;;;;;54.03;34.20;;;;;;;-0.51;79.33;95874.47;5093367;28;20039;-75
2023/12/19 08:38:57;;;;;;;52.75;32.15;;;;;;;-0.18;78.72;95884.78;5110237;28;20023;-75
2023/12/19 08:41:24;;;;;;;61.55;36.60;;;;;;;-0.17;78.67;95883.03;5093392;28;20473;-75
2023/12/19 08:43:49;;;;;;;54.38;35.40;;;;;;;0.03;77.89;95872.34;5093011;28;20043;-75
2023/12/19 08:46:20;;;;;;;53.35;32.65;;;;;;;0.09;77.51;95865.38;5093275;28;20033;-75
2023/12/19 08:48:47;;;;;;;48.88;31.52;;;;;;;0.03;76.98;95864.69;5110062;28;20027;-75
2023/12/19 08:51:13;;;;;;;55.70;33.47;;;;;;;0.19;76.96;95866.81;5110130;28;20489;-75
2023/12/19 08:53:38;;;;;;;60.92;36.50;;;;;;;0.29;77.42;95857.19;5110096;28;20085;-75
2023/12/19 08:56:04;;;;;;;54.67;33.75;;;;;;;0.22;77.49;95856.53;5093229;28;20088;-75
2023/12/19 08:58:30;;;;;;;58.17;34.70;;;;;;;0.15;77.88;95831.16;5109509;28;20031;-74
2023/12/19 09:00:56;;;;;;;60.38;33.95;;;;;;;0.27;78.70;95833.38;5093328;28;20031;-75
2023/12/19 09:03:21;;;;;;;60.10;33.60;;;;;;;0.48;77.86;95841.38;5092950;28;20134;-75
2023/12/19 09:05:47;;;;;;;61.00;35.50;;;;;;;0.28;78.67;95840.19;5093211;28;20027;-75
2023/12/19 09:08:12;;;;;;;59.50;36.10;;;;;;;0.59;77.25;95835.09;5092953;28;20031;-75
2023/12/19 09:10:38;;;;;;;64.78;38.60;;;;;;;0.59;77.38;95822.31;5111641;28;20027;-75
2023/12/19 09:13:04;;;;;;;56.30;32.63;;;;;;;0.46;77.85;95813.28;5109913;28;20035;-74
2023/12/19 09:15:29;;;;;;;56.17;35.55;;;;;;;0.72;77.46;95821.94;5109773;28;20032;-75
2023/12/19 09:17:54;;;;;;;51.28;32.75;;;;;;;0.83;76.83;95822.47;5109843;28;20031;-75
2023/12/19 09:20:21;;;;;;;47.35;30.83;;;;;;;0.67;77.42;95819.53;5109971;28;20020;-74
2023/12/19 09:22:46;;;;;;;53.03;31.30;;;;;;;0.39;78.38;95822.00;5109848;28;20071;-74
2023/12/19 09:25:15;;;;;;;49.88;31.88;;;;;;;0.49;78.79;95807.25;5109984;28;20039;-75
2023/12/19 09:27:41;;;;;;;50.70;30.05;;;;;;;0.72;78.76;95810.00;5093178;28;20035;-74
2023/12/19 09:30:08;;;;;;;41.63;25.65;;;;;;;0.58;78.33;95807.81;5076126;28;20070;-75
2023/12/19 09:32:34;;;;;;;44.05;26.08;;;;;;;0.28;79.41;95804.41;5076290;28;20042;-75
2023/12/19 09:34:59;;;;;;;44.88;26.60;;;;;;;0.35;79.69;95800.78;5111081;28;20027;-74
2023/12/19 09:37:26;;;;;;;47.42;28.77;;;;;;;0.46;78.99;95792.00;5092754;28;20043;-75
2023/12/19 09:39:52;;;;;;;47.35;28.95;;;;;;;0.72;78.68;95788.69;5076285;28;20126;-74
2023/12/19 09:42:19;;;;;;;50.63;30.58;;;;;;;0.95;78.07;95783.75;5075878;28;20509;-75
2023/12/19 09:44:51;;;;;;;49.67;30.48;;;;;;;1.03;77.30;95796.31;5109522;28;20063;-75
2023/12/19 09:47:25;;;;;;;51.92;29.98;;;;;;;0.95;77.66;95795.69;5110827;28;20030;-74
2023/12/19 09:49:57;;;;;;;52.15;32.38;;;;;;;1.25;77.00;95783.69;5093297;28;20032;-75
2023/12/19 09:52:24;;;;;;;54.70;31.63;;;;;;;1.08;77.59;95789.34;5109411;28;20455;-74
2023/12/19 09:54:53;;;;;;;47.75;29.25;;;;;;;0.95;77.57;95780.34;5109010;28;20488;-75
2023/12/19 09:57:21;;;;;;;52.35;30.90;;;;;;;1.24;77.29;95766.69;5091261;28;20028;-74
2023/12/19 09:59:47;;;;;;;45.20;27.35;;;;;;;1.48;76.82;95777.88;5075567;28;20104;-75
2023/12/19 10:02:14;;;;;;;39.58;26.10;;;;;;;1.23;76.69;95778.66;5075661;28;20032;-74
2023/12/19 10:04:41;;;;;;;37.45;24.60;;;;;;;1.52;76.38;95769.19;5091878;28;20040;-74
2023/12/19 10:07:06;;;;;;;44.85;27.52;;;;;;;1.76;75.57;95780.38;5108571;28;20031;-74
2023/12/19 10:09:32;;;;;;;36.85;22.73;;;;;;;1.92;75.35;95760.19;5092558;28;20028;-74
2023/12/19 10:12:07;;;;;;;43.17;26.02;;;;;;;2.23;74.90;95763.38;5112867;28;20050;-74
2023/12/19 10:14:33;;;;;;;40.88;25.25;;;;;;;2.14;75.21;95750.88;5096240;28;20028;-74
2023/12/19 10:17:00;;;;;;;44.60;28.02;;;;;;;2.18;75.24;95757.59;5113006;28;20031;-75
2023/12/19 10:19:26;;;;;;;46.35;27.92;;;;;;;2.40;74.65;95744.84;5095935;28;20481;-75
2023/12/19 10:22:06;;;;;;;43.72;26.80;;;;;;;2.24;74.94;95736.00;5112761;28;20043;-74
2023/12/19 10:24:31;;;;;;;43.15;26.17;;;;;;;2.52;74.26;95732.47;5097296;28;20035;-74
2023/12/19 10:27:03;;;;;;;46.17;26.45;;;;;;;2.67;74.15;95740.44;5112818;28;20024;-75
2023/12/19 10:29:36;;;;;;;41.65;26.08;;;;;;;2.77;73.93;95734.94;5112687;28;20035;-74
2023/12/19 10:32:20;;;;;;;43.00;27.77;;;;;;;2.98;73.85;95729.00;5113927;28;20068;-75
2023/12/19 10:34:46;;;;;;;38.25;25.20;;;;;;;3.03;73.90;95727.06;5112611;28;20036;-74
2023/12/19 10:37:17;;;;;;;40.22;26.38;;;;;;;3.03;74.09;95724.50;5112718;28;20397;-74
2023/12/19 10:39:43;;;;;;;42.80;26.45;;;;;;;3.13;73.36;95709.59;5095952;28;20036;-75
2023/12/19 10:42:11;;;;;;;48.33;29.15;;;;;;;3.24;73.32;95702.31;5095374;28;20459;-74
2023/12/19 10:44:40;;;;;;;42.60;28.60;;;;;;;3.25;73.12;95680.84;5095982;28;20146;-74
2023/12/19 10:47:09;;;;;;;42.90;26.27;;;;;;;3.55;71.80;95691.63;5095238;28;20070;-74
2023/12/19 10:49:36;;;;;;;41.25;27.02;;;;;;;3.49;72.10;95678.19;5112494;28;20040;-74
2023/12/19 10:52:04;;;;;;;50.92;29.10;;;;;;;3.50;71.68;95672.97;5095203;28;20115;-74
2023/12/19 10:54:29;;;;;;;41.00;26.63;;;;;;;3.46;72.17;95663.75;5095483;28;20038;-74
2023/12/19 10:57:02;;;;;;;44.78;28.15;;;;;;;3.56;71.74;95661.59;5095189;28;20036;-74
2023/12/19 10:59:44;;;;;;;41.85;26.33;;;;;;;3.32;72.61;95661.75;5113710;28;20469;-74
2023/12/19 11:02:29;;;;;;;34.15;23.40;;;;;;;3.56;72.42;95659.88;5095820;28;20027;-74
2023/12/19 11:04:59;;;;;;;52.75;32.45;;;;;;;3.40;73.01;95642.59;5095531;28;20032;-74
2023/12/19 11:07:25;;;;;;;53.08;33.78;;;;;;;3.34;73.24;95641.97;5095172;28;20086;-74
2023/12/19 11:09:55;;;;;;;44.17;29.50;;;;;;;3.68;71.90;95632.84;5094880;28;20486;-74
2023/12/19 11:12:20;;;;;;;45.45;27.75;;;;;;;3.71;72.19;95627.56;5095196;28;20028;-73
2023/12/19 11:14:46;;;;;;;47.17;29.95;;;;;;;3.73;72.05;95624.91;5094906;28;20031;-74
2023/12/19 11:17:15;;;;;;;43.70;27.17;;;;;;;3.56;72.12;95610.22;5094614;28;20508;-74
2023/12/19 11:19:49;;;;;;;35.78;24.60;;;;;;;3.45;72.63;95622.69;5095232;28;20039;-74